createdAt,value
2023-04-19T00:00:39.882Z,32.13
2023-04-19T00:03:08.603Z,37.50
2023-04-19T00:05:38.366Z,29.67
2023-04-19T00:08:07.005Z,32.93
2023-04-19T00:10:35.907Z,31.43
2023-04-19T00:13:04.115Z,32.73
2023-04-19T00:15:35.156Z,31.60
2023-04-19T00:18:03.636Z,34.93
2023-04-19T00:20:31.644Z,30.33
2023-04-19T00:22:59.667Z,32.93
2023-04-19T00:25:28.495Z,31.83
2023-04-19T00:27:56.467Z,31.30
2023-04-19T00:30:24.457Z,30.37
2023-04-19T00:32:54.002Z,29.47
2023-04-19T00:35:22.293Z,31.50
2023-04-19T00:37:50.312Z,29.87
2023-04-19T00:40:18.297Z,29.07
2023-04-19T00:42:46.284Z,30.80
2023-04-19T00:45:14.330Z,30.70
2023-04-19T00:47:43.022Z,31.30
2023-04-19T00:50:14.537Z,31.53
2023-04-19T00:52:42.791Z,32.17
2023-04-19T00:55:11.258Z,30.80
2023-04-19T00:57:39.661Z,28.03
2023-04-19T01:00:09.796Z,29.97
2023-04-19T01:02:37.911Z,28.53
2023-04-19T01:05:06.559Z,27.97
2023-04-19T01:07:36.206Z,29.60
2023-04-19T01:10:04.244Z,25.97
2023-04-19T01:12:32.220Z,32.43
2023-04-19T01:15:00.160Z,28.07
2023-04-19T01:17:30.271Z,33.63
2023-04-19T01:20:01.846Z,30.53
2023-04-19T01:22:32.044Z,29.80
2023-04-19T01:25:00.089Z,26.17
2023-04-19T01:27:28.148Z,32.47
2023-04-19T01:29:56.142Z,29.73
2023-04-19T01:32:26.305Z,32.97
2023-04-19T01:34:54.496Z,29.17
2023-04-19T01:37:22.455Z,28.50
2023-04-19T01:39:51.801Z,31.67
2023-04-19T01:42:19.893Z,29.13
2023-04-19T01:44:47.890Z,26.07
2023-04-19T01:47:15.912Z,32.03
2023-04-19T01:49:43.883Z,27.40
2023-04-19T01:52:11.822Z,25.50
2023-04-19T01:54:39.825Z,26.03
2023-04-19T01:57:09.186Z,27.30
2023-04-19T01:59:37.184Z,25.20
2023-04-19T02:02:08.355Z,25.07
2023-04-19T02:04:37.469Z,28.00
2023-04-19T02:07:05.422Z,29.60
2023-04-19T02:09:37.296Z,27.77
2023-04-19T02:12:05.969Z,26.83
2023-04-19T02:14:36.210Z,31.00
2023-04-19T02:17:04.278Z,27.03
2023-04-19T02:19:32.339Z,28.07
2023-04-19T02:22:00.342Z,33.77
2023-04-19T02:24:28.622Z,27.20
2023-04-19T02:26:56.572Z,26.63
2023-04-19T02:29:24.566Z,26.17
2023-04-19T02:31:54.017Z,26.07
2023-04-19T02:34:22.044Z,25.93
2023-04-19T02:36:50.029Z,24.80
2023-04-19T02:39:18.061Z,27.37
2023-04-19T02:41:46.036Z,23.33
2023-04-19T02:44:14.344Z,26.50
2023-04-19T02:46:42.552Z,26.07
2023-04-19T02:49:11.926Z,26.90
2023-04-19T02:51:39.905Z,25.97
2023-04-19T02:54:07.864Z,27.77
2023-04-19T02:56:35.855Z,23.83
2023-04-19T02:59:04.036Z,23.40
2023-04-19T03:01:32.421Z,26.13
2023-04-19T03:04:00.588Z,26.60
2023-04-19T03:06:30.041Z,25.83
2023-04-19T03:08:58.012Z,24.00
2023-04-19T03:11:26.075Z,25.83
2023-04-19T03:13:54.086Z,24.10
2023-04-19T03:16:22.166Z,24.77
2023-04-19T03:18:50.188Z,28.63
2023-04-19T03:21:18.190Z,28.30
2023-04-19T03:23:47.504Z,25.90
2023-04-19T03:26:15.469Z,23.60
2023-04-19T03:28:43.417Z,24.13
2023-04-19T03:31:11.417Z,25.87
2023-04-19T03:33:39.395Z,27.07
2023-04-19T03:36:08.088Z,30.10
2023-04-19T03:38:36.199Z,23.80
2023-04-19T03:41:05.657Z,25.90
2023-04-19T03:43:33.597Z,27.53
2023-04-19T03:46:01.623Z,26.70
2023-04-19T03:48:29.595Z,26.17
2023-04-19T03:50:57.578Z,27.67
2023-04-19T03:53:25.603Z,26.90
2023-04-19T03:55:53.566Z,29.63
2023-04-19T03:58:23.870Z,29.07
2023-04-19T04:00:52.080Z,28.10
2023-04-19T04:03:20.295Z,26.37
2023-04-19T04:05:49.227Z,27.57
2023-04-19T04:08:17.309Z,28.33
2023-04-19T04:10:45.310Z,26.07
2023-04-19T04:13:13.330Z,25.67
2023-04-19T04:15:42.677Z,25.43
2023-04-19T04:18:10.931Z,25.80
2023-04-19T04:20:38.890Z,25.17
2023-04-19T04:23:07.578Z,22.27
2023-04-19T04:25:37.693Z,25.37
2023-04-19T04:28:05.865Z,26.50
2023-04-19T04:30:35.017Z,22.47
2023-04-19T04:33:04.518Z,26.83
2023-04-19T04:35:32.581Z,25.80
2023-04-19T04:38:01.954Z,29.17
2023-04-19T04:40:32.453Z,33.37
2023-04-19T04:43:04.397Z,34.60
2023-04-19T04:45:32.719Z,35.63
2023-04-19T04:48:00.908Z,27.47
2023-04-19T04:50:30.306Z,22.33
2023-04-19T04:52:58.272Z,22.47
2023-04-19T04:55:26.258Z,22.93
2023-04-19T04:57:54.225Z,18.50
2023-04-19T05:00:22.796Z,16.73
2023-04-19T05:02:50.871Z,20.83
2023-04-19T05:05:18.975Z,19.37
2023-04-19T05:07:48.258Z,17.43
2023-04-19T05:10:16.261Z,19.00
2023-04-19T05:12:44.291Z,19.03
2023-04-19T05:15:12.954Z,18.50
2023-04-19T05:17:43.122Z,18.57
2023-04-19T05:20:12.142Z,19.40
2023-04-19T05:22:40.152Z,18.37
2023-04-19T05:25:11.702Z,22.00
2023-04-19T05:27:39.675Z,20.73
2023-04-19T05:30:08.647Z,17.63
2023-04-19T05:32:37.087Z,20.57
2023-04-19T05:35:05.327Z,18.33
2023-04-19T05:37:33.311Z,17.90
2023-04-19T05:40:01.299Z,17.83
2023-04-19T05:42:30.983Z,17.10
2023-04-19T05:44:59.109Z,17.27
2023-04-19T05:47:27.184Z,15.70
2023-04-19T05:49:55.409Z,15.00
2023-04-19T05:52:23.424Z,15.63
2023-04-19T05:54:51.440Z,16.93
2023-04-19T05:57:19.419Z,13.53
2023-04-19T05:59:48.850Z,12.87
2023-04-19T06:02:17.277Z,18.73
2023-04-19T06:04:45.943Z,13.60
2023-04-19T06:07:30.086Z,11.37
2023-04-19T06:10:00.715Z,11.90
2023-04-19T06:12:29.024Z,13.17
2023-04-19T06:14:58.344Z,11.07
2023-04-19T06:17:26.326Z,9.93
2023-04-19T06:19:54.456Z,9.93
2023-04-19T06:22:23.055Z,8.43
2023-04-19T06:24:51.146Z,8.57
2023-04-19T06:27:19.303Z,9.40
2023-04-19T06:29:48.056Z,8.60
2023-04-19T06:32:18.173Z,8.00
2023-04-19T06:34:46.143Z,7.90
2023-04-19T06:37:14.116Z,8.37
2023-04-19T06:39:42.188Z,9.30
2023-04-19T06:42:10.462Z,7.97
2023-04-19T06:44:38.450Z,11.13
2023-04-19T06:47:06.874Z,9.33
2023-04-19T06:49:36.319Z,13.97
2023-04-19T06:52:04.486Z,10.73
2023-04-19T06:54:32.497Z,8.70
2023-04-19T06:57:00.893Z,8.80
2023-04-19T06:59:29.024Z,9.10
2023-04-19T07:01:58.552Z,8.73
2023-04-19T07:04:27.617Z,9.40
2023-04-19T07:06:57.270Z,10.47
2023-04-19T07:09:25.368Z,17.37
2023-04-19T07:11:53.433Z,15.13
2023-04-19T07:14:21.438Z,15.87
2023-04-19T07:16:50.787Z,13.03
2023-04-19T07:19:20.723Z,13.83
2023-04-19T07:21:48.663Z,12.50
2023-04-19T07:24:18.263Z,15.50
2023-04-19T07:26:46.573Z,12.43
2023-04-19T07:29:14.549Z,14.87
2023-04-19T07:31:42.634Z,16.83
2023-04-19T07:34:10.755Z,11.90
2023-04-19T07:36:39.087Z,12.47
2023-04-19T07:39:07.163Z,13.43
2023-04-19T07:41:36.758Z,13.70
2023-04-19T07:44:04.810Z,14.63
2023-04-19T07:46:32.891Z,14.43
2023-04-19T07:49:00.866Z,15.63
2023-04-19T07:51:28.988Z,16.47
2023-04-19T07:53:57.026Z,17.13
2023-04-19T07:56:26.469Z,15.47
2023-04-19T07:59:04.787Z,15.57
2023-04-19T08:01:36.999Z,15.97
2023-04-19T08:04:05.411Z,17.10
2023-04-19T08:06:33.815Z,14.47
2023-04-19T08:09:01.853Z,11.80
2023-04-19T08:11:29.903Z,11.53
2023-04-19T08:14:09.239Z,17.30
2023-04-19T08:17:19.363Z,12.97
2023-04-19T08:19:31.026Z,12.70
2023-04-19T08:21:59.028Z,15.57
2023-04-19T08:24:27.253Z,17.40
2023-04-19T08:26:55.200Z,16.30
2023-04-19T08:29:24.686Z,20.87
2023-04-19T08:31:52.758Z,15.00
2023-04-19T08:34:21.109Z,14.77
2023-04-19T08:36:59.898Z,14.10
2023-04-19T08:39:33.585Z,13.57
2023-04-19T08:42:09.224Z,15.07
2023-04-19T08:44:59.070Z,16.47
2023-04-19T08:47:34.331Z,19.23
2023-04-19T08:52:47.749Z,13.73
2023-04-19T08:55:22.824Z,12.93
2023-04-19T08:57:50.876Z,13.17
2023-04-19T09:00:21.842Z,13.53
2023-04-19T09:02:51.399Z,13.20
2023-04-19T09:05:21.094Z,11.57
2023-04-19T09:07:49.288Z,16.73
2023-04-19T09:10:19.371Z,14.23
2023-04-19T09:13:02.086Z,15.90
2023-04-19T09:15:44.550Z,15.20
2023-04-19T09:18:14.155Z,14.40
2023-04-19T09:20:43.953Z,13.87
2023-04-19T09:23:13.555Z,13.50
2023-04-19T09:28:15.983Z,10.57
2023-04-19T09:30:58.160Z,12.00
2023-04-19T09:33:35.601Z,19.27
2023-04-19T09:36:04.083Z,21.50
2023-04-19T09:38:32.105Z,32.77
2023-04-19T09:41:08.362Z,50.57
2023-04-19T09:44:00.833Z,21.30
2023-04-19T09:46:45.661Z,12.17
2023-04-19T09:49:25.037Z,10.97
2023-04-19T09:51:59.215Z,10.47
2023-04-19T09:54:29.945Z,13.03
2023-04-19T09:57:00.191Z,12.60
2023-04-19T09:59:29.382Z,13.83
2023-04-19T10:02:02.206Z,13.03
2023-04-19T10:04:49.894Z,10.97
2023-04-19T10:07:30.310Z,14.17
2023-04-19T10:10:11.831Z,12.40
2023-04-19T10:18:10.708Z,14.20
2023-04-19T10:20:44.349Z,15.77
2023-04-19T10:23:12.887Z,14.50
2023-04-19T10:25:41.105Z,13.63
2023-04-19T10:28:09.152Z,17.07
2023-04-19T10:30:37.109Z,20.33
2023-04-19T10:33:07.020Z,19.20
2023-04-19T10:35:39.630Z,21.60
2023-04-19T10:38:10.463Z,20.83
2023-04-19T10:41:01.340Z,16.97
2023-04-19T10:43:30.421Z,21.87
2023-04-19T10:46:01.860Z,18.90
2023-04-19T10:48:35.132Z,22.23
2023-04-19T10:51:07.254Z,21.80
2023-04-19T10:53:56.018Z,21.40
2023-04-19T10:57:08.564Z,25.07
2023-04-19T10:59:37.301Z,21.73
2023-04-19T11:02:06.697Z,25.83
2023-04-19T11:05:01.727Z,20.47
2023-04-19T11:07:41.713Z,32.43
2023-04-19T11:10:11.755Z,34.00
2023-04-19T11:12:44.358Z,24.30
2023-04-19T11:15:12.428Z,20.90
2023-04-19T11:17:41.805Z,22.07
2023-04-19T11:20:11.742Z,33.10
2023-04-19T11:22:42.929Z,26.47
2023-04-19T11:25:13.122Z,23.23
2023-04-19T11:27:42.862Z,30.23
2023-04-19T11:30:12.622Z,27.00
2023-04-19T11:32:46.917Z,31.00
2023-04-19T11:35:15.869Z,30.70
2023-04-19T11:37:45.254Z,35.53
2023-04-19T11:40:17.189Z,35.43
2023-04-19T11:42:45.892Z,38.00
2023-04-19T11:45:30.404Z,30.33
2023-04-19T11:48:01.159Z,25.30
2023-04-19T11:50:34.315Z,32.67
2023-04-19T11:53:12.566Z,24.47
2023-04-19T11:55:43.047Z,23.63
2023-04-19T11:58:23.705Z,27.03
2023-04-19T12:00:52.176Z,33.50
2023-04-19T12:03:25.806Z,24.40
2023-04-19T12:06:14.824Z,23.83
2023-04-19T12:08:48.700Z,24.53
2023-04-19T12:11:18.857Z,23.87
2023-04-19T12:13:46.881Z,23.53
2023-04-19T12:16:15.390Z,22.73
2023-04-19T12:18:48.955Z,22.07
2023-04-19T12:21:27.559Z,28.00
2023-04-19T12:23:58.259Z,24.90
2023-04-19T12:26:26.986Z,24.80
2023-04-19T12:28:55.223Z,25.37
2023-04-19T12:31:23.271Z,29.30
2023-04-19T12:33:51.651Z,30.03
2023-04-19T12:36:19.925Z,25.70
2023-04-19T12:38:47.949Z,29.63
2023-04-19T12:41:17.274Z,28.50
2023-04-19T12:43:45.262Z,27.03
2023-04-19T12:46:13.345Z,28.10
2023-04-19T12:48:41.322Z,30.80
2023-04-19T12:51:09.827Z,30.13
2023-04-19T12:53:37.798Z,30.60
2023-04-19T12:56:06.063Z,36.77
2023-04-19T12:58:35.683Z,35.37
2023-04-19T13:01:03.714Z,27.23
2023-04-19T13:03:33.286Z,28.93
2023-04-19T13:06:01.370Z,36.17
2023-04-19T13:08:44.214Z,34.73
2023-04-19T13:11:14.682Z,34.13
2023-04-19T13:13:44.026Z,45.57
2023-04-19T13:16:12.042Z,40.30
2023-04-19T13:18:40.065Z,47.20
2023-04-19T13:21:08.624Z,52.90
2023-04-19T13:23:36.958Z,40.13
2023-04-19T13:26:05.369Z,43.93
2023-04-19T13:28:35.942Z,46.87
2023-04-19T13:31:06.612Z,47.23
2023-04-19T13:33:34.680Z,47.60
2023-04-19T13:36:02.671Z,52.50
2023-04-19T13:38:30.782Z,42.07
2023-04-19T13:40:58.869Z,38.73
2023-04-19T13:43:27.005Z,35.90
2023-04-19T13:45:55.516Z,33.93
2023-04-19T13:48:27.460Z,38.07
2023-04-19T13:50:55.960Z,35.90
2023-04-19T13:53:24.369Z,34.80
2023-04-19T13:55:52.470Z,34.50
2023-04-19T13:58:20.656Z,40.30
2023-04-19T14:00:49.175Z,40.60
2023-04-19T14:03:17.591Z,41.13
2023-04-19T14:05:47.179Z,38.53
2023-04-19T14:08:15.134Z,36.13
2023-04-19T14:10:43.189Z,39.97
2023-04-19T14:13:11.279Z,46.80
2023-04-19T14:15:39.288Z,45.23
2023-04-19T14:18:07.440Z,52.50
2023-04-19T14:20:35.994Z,48.43
2023-04-19T14:23:05.337Z,45.50
2023-04-19T14:25:33.330Z,42.70
2023-04-19T14:28:01.315Z,48.13
2023-04-19T14:30:30.674Z,46.77
2023-04-19T14:32:59.268Z,42.00
2023-04-19T14:35:27.342Z,56.70
2023-04-19T14:37:55.329Z,45.27
2023-04-19T14:40:25.035Z,42.53
2023-04-19T14:42:53.337Z,43.90
2023-04-19T14:45:21.547Z,41.77
2023-04-19T14:47:49.556Z,44.87
2023-04-19T14:50:17.855Z,37.10
2023-04-19T14:52:45.858Z,38.17
2023-04-19T14:55:13.996Z,35.07
2023-04-19T14:57:43.319Z,35.53
2023-04-19T15:00:13.781Z,40.47
2023-04-19T15:02:41.853Z,38.63
2023-04-19T15:05:10.843Z,37.80
2023-04-19T15:07:39.649Z,39.80
2023-04-19T15:10:08.841Z,41.50
2023-04-19T15:12:36.829Z,41.13
2023-04-19T15:15:07.012Z,37.17
2023-04-19T15:17:35.131Z,39.73
2023-04-19T15:20:03.188Z,42.60
2023-04-19T15:22:31.611Z,43.17
2023-04-19T15:25:01.285Z,41.93
2023-04-19T15:27:29.425Z,43.43
2023-04-19T15:29:57.450Z,40.87
2023-04-19T15:32:29.053Z,35.60
2023-04-19T15:34:57.080Z,36.63
2023-04-19T15:37:25.046Z,52.70
2023-04-19T15:39:53.053Z,48.83
2023-04-19T15:42:21.007Z,37.77
2023-04-19T15:44:48.964Z,35.50
2023-04-19T15:47:17.332Z,39.87
2023-04-19T15:49:47.612Z,33.73
2023-04-19T15:52:15.654Z,35.73
2023-04-19T15:54:43.733Z,35.93
2023-04-19T15:57:11.796Z,35.63
2023-04-19T15:59:39.788Z,33.57
2023-04-19T16:02:08.342Z,40.93
2023-04-19T16:04:37.219Z,32.67
2023-04-19T16:07:06.830Z,38.23
2023-04-19T16:09:34.811Z,35.43
2023-04-19T16:12:02.795Z,35.40
2023-04-19T16:14:30.750Z,37.13
2023-04-19T16:17:00.835Z,35.43
2023-04-19T16:19:28.837Z,33.87
2023-04-19T16:21:56.892Z,42.33
2023-04-19T16:24:26.278Z,40.53
2023-04-19T16:26:54.265Z,40.30
2023-04-19T16:29:22.232Z,39.33
2023-04-19T16:31:52.093Z,38.17
2023-04-19T16:34:21.276Z,35.43
2023-04-19T16:36:49.380Z,35.23
2023-04-19T16:39:17.545Z,34.27
2023-04-19T16:41:47.050Z,37.87
2023-04-19T16:44:15.152Z,34.27
2023-04-19T16:46:43.753Z,34.87
2023-04-19T16:49:12.027Z,37.37
2023-04-19T16:51:40.048Z,34.73
2023-04-19T16:54:08.084Z,40.77
2023-04-19T16:56:36.068Z,37.57
2023-04-19T16:59:05.434Z,44.07
2023-04-19T17:01:33.480Z,54.20
2023-04-19T17:04:01.602Z,44.67
2023-04-19T17:06:29.831Z,44.37
2023-04-19T17:08:57.761Z,43.20
2023-04-19T17:11:25.710Z,43.80
2023-04-19T17:13:55.320Z,40.10
2023-04-19T17:16:26.198Z,38.50
2023-04-19T17:18:56.367Z,40.20
2023-04-19T17:21:24.386Z,42.20
2023-04-19T17:23:52.431Z,41.73
2023-04-19T17:26:21.036Z,41.27
2023-04-19T17:28:49.046Z,43.40
2023-04-19T17:31:17.116Z,37.33
2023-04-19T17:33:46.436Z,41.07
2023-04-19T17:36:14.586Z,38.90
2023-04-19T17:38:42.568Z,47.23
2023-04-19T17:41:16.040Z,44.10
2023-04-19T17:43:44.057Z,54.30
2023-04-19T17:46:12.347Z,50.70
2023-04-19T17:48:40.377Z,57.30
2023-04-19T17:51:10.130Z,50.17
2023-04-19T17:53:38.067Z,49.20
2023-04-19T17:56:06.243Z,48.13
2023-04-19T17:58:35.722Z,49.33
2023-04-19T18:01:04.382Z,47.40
2023-04-19T18:03:32.708Z,58.93
2023-04-19T18:06:01.034Z,56.33
2023-04-19T18:08:30.367Z,54.23
2023-04-19T18:10:58.333Z,53.20
2023-04-19T18:13:26.659Z,54.10
2023-04-19T18:15:54.701Z,53.50
2023-04-19T18:18:23.258Z,53.63
2023-04-19T18:20:51.279Z,51.27
2023-04-19T18:23:19.243Z,52.13
2023-04-19T18:25:55.162Z,56.33
2023-04-19T18:28:23.163Z,60.43
2023-04-19T18:30:51.466Z,53.37
2023-04-19T18:33:19.476Z,52.27
2023-04-19T18:35:47.622Z,63.90
2023-04-19T18:38:15.589Z,55.47
2023-04-19T18:40:43.729Z,52.57
2023-04-19T18:43:13.049Z,59.90
2023-04-19T18:45:41.058Z,56.47
2023-04-19T18:48:09.456Z,53.47
2023-04-19T18:50:38.331Z,53.37
2023-04-19T18:53:06.304Z,56.43
2023-04-19T18:55:34.318Z,58.87
2023-04-19T18:58:02.301Z,54.93
2023-04-19T19:00:31.617Z,52.10
2023-04-19T19:03:00.530Z,54.30
2023-04-19T19:05:30.390Z,54.50
2023-04-19T19:07:58.612Z,52.00
2023-04-19T19:10:49.817Z,48.37
2023-04-19T19:13:14.548Z,48.83
2023-04-19T19:15:43.901Z,52.30
2023-04-19T19:18:11.963Z,53.70
2023-04-19T19:20:40.066Z,54.77
2023-04-19T19:23:08.040Z,51.70
2023-04-19T19:25:36.062Z,56.13
2023-04-19T19:28:08.334Z,50.70
2023-04-19T19:30:39.844Z,55.97
2023-04-19T19:33:09.554Z,54.30
2023-04-19T19:38:06.752Z,59.90
2023-04-19T19:40:34.749Z,55.63
2023-04-19T19:43:03.368Z,57.00
2023-04-19T19:45:32.723Z,59.80
2023-04-19T19:48:01.158Z,52.13
2023-04-19T19:53:02.110Z,54.50
2023-04-19T19:55:30.328Z,55.87
2023-04-19T19:58:18.715Z,53.30
2023-04-19T20:00:48.684Z,60.50
2023-04-19T20:03:35.497Z,56.47
2023-04-19T20:08:42.441Z,58.80
2023-04-19T20:11:12.089Z,60.37
2023-04-19T20:13:40.047Z,53.33
2023-04-19T20:16:09.980Z,54.37
2023-04-19T20:18:38.656Z,56.67
2023-04-19T20:21:07.959Z,50.03
2023-04-19T20:23:39.147Z,55.30
2023-04-19T20:26:07.106Z,54.97
2023-04-19T20:28:35.433Z,55.93
2023-04-19T20:31:03.506Z,55.57
2023-04-19T20:33:31.485Z,56.03
2023-04-19T20:36:00.590Z,58.77
2023-04-19T20:38:29.979Z,58.33
2023-04-19T20:40:58.131Z,58.50
2023-04-19T20:43:26.184Z,56.53
2023-04-19T20:45:54.239Z,60.47
2023-04-19T20:48:22.273Z,59.33
2023-04-19T20:50:50.274Z,58.13
2023-04-19T20:53:18.461Z,56.60
2023-04-19T20:55:47.804Z,56.97
2023-04-19T20:58:16.079Z,56.97
2023-04-19T21:00:44.186Z,59.67
2023-04-19T21:03:12.188Z,56.67
2023-04-19T21:05:40.261Z,56.33
2023-04-19T21:08:08.262Z,59.70
2023-04-19T21:10:36.188Z,58.00
2023-04-19T21:13:05.554Z,56.77
2023-04-19T21:15:33.624Z,65.17
2023-04-19T21:18:01.674Z,68.53
2023-04-19T21:20:29.791Z,63.97
2023-04-19T21:22:57.760Z,63.90
2023-04-19T21:25:25.707Z,62.40
2023-04-19T21:27:53.668Z,63.77
2023-04-19T21:30:23.702Z,62.73
2023-04-19T21:32:51.732Z,65.27
2023-04-19T21:35:20.156Z,62.77
2023-04-19T21:37:48.185Z,60.50
2023-04-19T21:40:16.159Z,66.03
2023-04-19T21:42:44.140Z,58.70
2023-04-19T21:45:12.708Z,57.53
2023-04-19T21:47:42.113Z,58.27
2023-04-19T21:50:10.851Z,58.83
2023-04-19T21:52:38.886Z,62.50
2023-04-19T21:55:08.204Z,60.50
2023-04-19T21:57:38.260Z,55.70
2023-04-19T22:00:09.275Z,56.83
2023-04-19T22:02:37.585Z,57.23
2023-04-19T22:05:08.223Z,52.60
2023-04-19T22:07:38.164Z,55.37
2023-04-19T22:10:07.614Z,62.17
2023-04-19T22:12:42.617Z,58.83
2023-04-19T22:15:16.245Z,58.00
2023-04-19T22:17:44.631Z,55.07
2023-04-19T22:20:14.813Z,56.70
2023-04-19T22:22:42.862Z,57.63
2023-04-19T22:25:11.182Z,57.40
2023-04-19T22:27:39.189Z,63.00
2023-04-19T22:30:08.573Z,53.83
2023-04-19T22:32:36.562Z,55.57
2023-04-19T22:35:05.745Z,51.27
2023-04-19T22:37:35.050Z,54.63
2023-04-19T22:40:05.313Z,53.23
2023-04-19T22:42:33.256Z,55.17
2023-04-19T22:45:01.219Z,55.03
2023-04-19T22:47:29.238Z,51.97
2023-04-19T22:49:57.189Z,52.53
2023-04-19T22:52:25.191Z,49.60
2023-04-19T22:54:54.570Z,51.00
2023-04-19T22:57:22.584Z,60.73
2023-04-19T22:59:51.014Z,49.37
2023-04-19T23:02:19.038Z,58.53
2023-04-19T23:04:48.616Z,55.27
2023-04-19T23:07:19.963Z,55.77
2023-04-19T23:09:49.782Z,58.27
2023-04-19T23:12:19.107Z,56.43
2023-04-19T23:14:48.381Z,58.20
2023-04-19T23:17:17.150Z,60.03
2023-04-19T23:19:45.144Z,63.60
2023-04-19T23:22:13.146Z,64.73
2023-04-19T23:24:41.169Z,63.27
2023-04-19T23:27:09.192Z,67.93
2023-04-19T23:29:38.560Z,64.17
2023-04-19T23:32:06.827Z,65.73
2023-04-19T23:34:34.780Z,64.67
2023-04-19T23:37:02.748Z,69.33
2023-04-19T23:39:30.827Z,65.00
2023-04-19T23:41:58.993Z,70.83
2023-04-19T23:44:27.849Z,66.57
2023-04-19T23:46:57.442Z,67.83
2023-04-19T23:49:25.462Z,68.50
2023-04-19T23:51:53.446Z,66.27
2023-04-19T23:54:25.686Z,68.63
2023-04-19T23:56:54.166Z,74.83
2023-04-19T23:59:26.684Z,69.60
